Time;durP1;ratioP1;P1;durP2;ratioP2;P2;SDS_P1;SDS_P2;PMS_P1;PMS_P2;Temp;Humidity;BMP_temperature;BMP_pressure;BME280_temperature;BME280_humidity;BME280_pressure;Samples;Min_cycle;Max_cycle;Signal;HPM_P1;HPM_P2
2022/08/13 00:01:23;;;;;;;15.27;12.93;;;;;;;;;;757325;183;630554;-59
2022/08/13 00:03:52;;;;;;;20.23;12.93;;;;;;;;;;759558;183;614893;-61
2022/08/13 00:06:22;;;;;;;17.83;13.87;;;;;;;;;;754229;185;634548;-60
2022/08/13 00:08:41;;;;;;;17.27;13.63;;;;;;;;;;751577;184;626610;-58
2022/08/13 00:11:07;;;;;;;17.77;13.60;;;;;;;;;;758282;184;623961;-58
2022/08/13 00:13:33;;;;;;;15.83;13.33;;;;;;;;;;764556;183;622806;-59
2022/08/13 00:16:01;;;;;;;15.50;12.60;;;;;;;;;;760038;184;628285;-59
2022/08/13 00:18:25;;;;;;;17.67;14.53;;;;;;;;;;757981;184;616316;-60
2022/08/13 00:20:53;;;;;;;16.87;14.33;;;;;;;;;;757445;185;635203;-59
2022/08/13 00:23:18;;;;;;;19.87;13.73;;;;;;;;;;757933;184;626662;-60
2022/08/13 00:25:44;;;;;;;18.57;14.67;;;;;;;;;;754855;183;629120;-58
2022/08/13 00:28:10;;;;;;;16.47;14.33;;;;;;;;;;760005;184;616618;-59
2022/08/13 00:30:36;;;;;;;16.40;13.57;;;;;;;;;;759271;183;617698;-58
2022/08/13 00:33:03;;;;;;;19.87;13.37;;;;;;;;;;755178;185;625740;-58
2022/08/13 00:35:30;;;;;;;15.67;13.23;;;;;;;;;;758616;185;629283;-59
2022/08/13 00:37:57;;;;;;;21.60;12.80;;;;;;;;;;753807;183;628672;-58
2022/08/13 00:40:22;;;;;;;17.77;14.10;;;;;;;;;;755363;183;635984;-59
2022/08/13 00:42:47;;;;;;;14.87;13.30;;;;;;;;;;759403;184;616926;-58
2022/08/13 00:45:13;;;;;;;16.10;13.70;;;;;;;;;;756725;184;620969;-59
2022/08/13 00:50:12;;;;;;;16.03;13.10;;;;;;;;;;757778;185;627587;-60
2022/08/13 00:52:38;;;;;;;13.80;12.30;;;;;;;;;;762210;183;616978;-60
2022/08/13 00:55:03;;;;;;;16.80;14.83;;;;;;;;;;754730;184;625176;-58
2022/08/13 00:57:29;;;;;;;18.50;14.83;;;;;;;;;;756802;183;630017;-60
2022/08/13 00:59:55;;;;;;;18.90;16.10;;;;;;;;;;759347;183;628277;-60
2022/08/13 01:02:21;;;;;;;17.97;14.53;;;;;;;;;;756263;183;615456;-60
2022/08/13 01:04:47;;;;;;;20.83;15.83;;;;;;;;;;752594;183;634335;-59
2022/08/13 01:07:13;;;;;;;18.70;16.10;;;;;;;;;;767343;183;634744;-60
2022/08/13 01:09:39;;;;;;;30.60;16.20;;;;;;;;;;761258;183;625201;-58
2022/08/13 01:12:05;;;;;;;17.00;14.87;;;;;;;;;;758100;183;636004;-59
2022/08/13 01:14:32;;;;;;;23.77;16.17;;;;;;;;;;757602;183;617359;-58
2022/08/13 01:16:56;;;;;;;19.00;15.53;;;;;;;;;;759095;185;619815;-61
2022/08/13 01:19:24;;;;;;;18.43;15.47;;;;;;;;;;754918;184;630218;-59
2022/08/13 01:21:48;;;;;;;25.40;15.73;;;;;;;;;;752787;184;619281;-58
2022/08/13 01:24:14;;;;;;;22.27;15.43;;;;;;;;;;756989;186;626063;-59
2022/08/13 01:26:40;;;;;;;20.73;15.97;;;;;;;;;;755056;183;624543;-59
2022/08/13 01:29:06;;;;;;;19.30;15.53;;;;;;;;;;754952;183;626711;-58
2022/08/13 01:31:32;;;;;;;20.80;15.10;;;;;;;;;;756732;183;626528;-58
2022/08/13 01:33:59;;;;;;;18.27;13.37;;;;;;;;;;763064;183;629996;-60
2022/08/13 01:36:23;;;;;;;18.80;14.70;;;;;;;;;;757025;185;626067;-60
2022/08/13 01:38:49;;;;;;;16.93;14.83;;;;;;;;;;757685;183;613988;-59
2022/08/13 01:41:15;;;;;;;17.90;15.80;;;;;;;;;;758280;183;627872;-59
2022/08/13 01:43:41;;;;;;;18.20;14.50;;;;;;;;;;754872;185;627641;-58
2022/08/13 01:46:06;;;;;;;16.90;15.10;;;;;;;;;;754627;183;628039;-59
2022/08/13 01:51:08;;;;;;;19.30;15.30;;;;;;;;;;772233;181;623068;-58
2022/08/13 01:53:30;;;;;;;19.83;16.80;;;;;;;;;;761202;183;639091;-59
2022/08/13 01:55:56;;;;;;;17.83;15.47;;;;;;;;;;755950;183;628013;-59
2022/08/13 01:58:22;;;;;;;19.73;16.17;;;;;;;;;;760876;185;616501;-58
2022/08/13 02:00:47;;;;;;;22.07;15.63;;;;;;;;;;759215;183;619305;-58
2022/08/13 02:03:13;;;;;;;19.10;14.60;;;;;;;;;;758498;184;627801;-58
2022/08/13 02:05:39;;;;;;;20.60;17.70;;;;;;;;;;760485;183;620259;-59
2022/08/13 02:08:06;;;;;;;20.97;16.43;;;;;;;;;;755786;183;621666;-58
2022/08/13 02:10:32;;;;;;;25.60;18.53;;;;;;;;;;755200;183;627891;-57
2022/08/13 02:12:57;;;;;;;21.30;16.60;;;;;;;;;;759162;183;624711;-59
2022/08/13 02:15:23;;;;;;;17.70;15.47;;;;;;;;;;751845;185;633078;-58
2022/08/13 02:17:49;;;;;;;19.40;14.90;;;;;;;;;;741600;187;626394;-58
2022/08/13 02:20:17;;;;;;;18.67;15.55;;;;;;;;;;739200;188;617558;-60
2022/08/13 02:22:42;;;;;;;18.70;14.90;;;;;;;;;;761998;181;633405;-58
2022/08/13 02:25:09;;;;;;;20.30;14.83;;;;;;;;;;761051;181;623659;-58
2022/08/13 02:27:34;;;;;;;22.53;14.57;;;;;;;;;;753634;184;621542;-58
2022/08/13 02:30:00;;;;;;;19.60;14.83;;;;;;;;;;761196;185;616157;-59
2022/08/13 02:32:26;;;;;;;20.03;14.57;;;;;;;;;;755368;183;635161;-58
2022/08/13 02:34:52;;;;;;;17.50;14.73;;;;;;;;;;754529;186;622874;-58
2022/08/13 02:37:21;;;;;;;15.30;13.80;;;;;;;;;;754352;186;616827;-58
2022/08/13 02:39:44;;;;;;;17.90;15.67;;;;;;;;;;760388;183;614007;-58
2022/08/13 02:42:10;;;;;;;22.17;16.77;;;;;;;;;;769172;180;630468;-58
2022/08/13 02:44:36;;;;;;;18.53;16.53;;;;;;;;;;756283;183;637253;-59
2022/08/13 02:47:02;;;;;;;30.70;17.50;;;;;;;;;;762045;183;640211;-58
2022/08/13 02:49:27;;;;;;;25.90;17.47;;;;;;;;;;755947;183;632139;-58
2022/08/13 02:51:54;;;;;;;21.77;16.70;;;;;;;;;;755410;184;622884;-59
2022/08/13 02:54:22;;;;;;;19.50;14.43;;;;;;;;;;756879;184;616327;-59
2022/08/13 02:56:47;;;;;;;17.33;15.50;;;;;;;;;;754889;183;629309;-58
2022/08/13 02:59:13;;;;;;;19.17;16.13;;;;;;;;;;756236;183;633677;-58
2022/08/13 03:01:39;;;;;;;17.77;15.87;;;;;;;;;;756550;184;626285;-59
2022/08/13 03:04:05;;;;;;;21.07;16.57;;;;;;;;;;760504;183;618802;-59
2022/08/13 03:06:31;;;;;;;20.43;16.40;;;;;;;;;;755838;184;632037;-57
2022/08/13 03:09:01;;;;;;;18.00;16.00;;;;;;;;;;757102;185;628106;-57
2022/08/13 03:11:23;;;;;;;24.77;19.27;;;;;;;;;;760229;185;627223;-57
2022/08/13 03:13:48;;;;;;;25.20;19.40;;;;;;;;;;757311;185;620276;-59
2022/08/13 03:16:15;;;;;;;33.33;22.27;;;;;;;;;;760368;183;630276;-58
2022/08/13 03:18:40;;;;;;;24.17;20.67;;;;;;;;;;759455;183;625013;-57
2022/08/13 03:21:06;;;;;;;29.20;23.27;;;;;;;;;;750885;186;626072;-59
2022/08/13 03:23:32;;;;;;;33.13;24.50;;;;;;;;;;752664;184;633971;-59
2022/08/13 03:25:58;;;;;;;34.73;23.93;;;;;;;;;;756435;185;623426;-58
2022/08/13 03:28:25;;;;;;;32.57;24.80;;;;;;;;;;773263;179;626870;-58
2022/08/13 03:30:49;;;;;;;41.60;25.70;;;;;;;;;;760264;183;633011;-57
2022/08/13 03:33:17;;;;;;;31.20;25.30;;;;;;;;;;756259;183;627799;-59
2022/08/13 03:35:41;;;;;;;39.50;24.23;;;;;;;;;;759466;183;613453;-57
2022/08/13 03:38:07;;;;;;;35.37;25.53;;;;;;;;;;758458;183;641361;-57
2022/08/13 03:43:07;;;;;;;38.00;26.37;;;;;;;;;;755461;183;623250;-57
2022/08/13 03:45:33;;;;;;;32.57;25.17;;;;;;;;;;746534;185;624770;-57
2022/08/13 03:48:00;;;;;;;32.40;24.43;;;;;;;;;;750411;184;636552;-57
2022/08/13 03:50:25;;;;;;;33.97;26.13;;;;;;;;;;754587;183;631316;-57
2022/08/13 03:52:51;;;;;;;27.53;22.60;;;;;;;;;;759407;183;634847;-57
2022/08/13 03:55:18;;;;;;;33.50;24.87;;;;;;;;;;757450;183;633899;-57
2022/08/13 03:57:44;;;;;;;34.77;25.33;;;;;;;;;;756698;183;629042;-58
2022/08/13 04:00:11;;;;;;;31.33;24.83;;;;;;;;;;758992;183;618864;-57
2022/08/13 04:02:40;;;;;;;33.07;24.07;;;;;;;;;;755201;183;637427;-57
2022/08/13 04:05:00;;;;;;;32.27;25.57;;;;;;;;;;759924;183;634927;-57
2022/08/13 04:07:27;;;;;;;34.00;25.50;;;;;;;;;;754471;183;629027;-57
2022/08/13 04:09:53;;;;;;;34.87;25.00;;;;;;;;;;757574;183;623039;-58
2022/08/13 04:12:18;;;;;;;37.77;28.20;;;;;;;;;;774173;177;620914;-58
2022/08/13 04:14:44;;;;;;;39.30;27.73;;;;;;;;;;774357;179;630309;-57
2022/08/13 04:17:10;;;;;;;37.53;28.70;;;;;;;;;;777296;179;629120;-58
2022/08/13 04:19:38;;;;;;;42.97;29.87;;;;;;;;;;761577;183;618922;-57
2022/08/13 04:22:04;;;;;;;43.43;30.57;;;;;;;;;;760799;181;631629;-57
2022/08/13 04:24:29;;;;;;;40.47;28.40;;;;;;;;;;759071;184;628208;-56
2022/08/13 04:26:58;;;;;;;37.30;29.57;;;;;;;;;;754797;183;626006;-57
2022/08/13 04:29:21;;;;;;;40.53;28.77;;;;;;;;;;755728;185;633114;-57
2022/08/13 04:31:47;;;;;;;40.77;28.97;;;;;;;;;;757256;183;633480;-59
2022/08/13 04:34:13;;;;;;;43.90;29.30;;;;;;;;;;769944;183;625754;-57
2022/08/13 04:36:39;;;;;;;43.90;30.43;;;;;;;;;;756724;183;626972;-57
2022/08/13 04:39:04;;;;;;;46.70;31.80;;;;;;;;;;755864;183;616549;-57
2022/08/13 04:41:30;;;;;;;42.83;29.13;;;;;;;;;;760165;185;626487;-57
2022/08/13 04:43:56;;;;;;;40.50;29.87;;;;;;;;;;752831;184;625049;-57
2022/08/13 04:46:22;;;;;;;40.80;30.00;;;;;;;;;;752971;183;624357;-57
2022/08/13 04:48:48;;;;;;;41.57;31.83;;;;;;;;;;756529;185;624579;-57
2022/08/13 04:51:14;;;;;;;51.93;30.23;;;;;;;;;;754707;183;624690;-57
2022/08/13 04:53:40;;;;;;;50.90;31.87;;;;;;;;;;753401;183;628336;-59
2022/08/13 04:56:05;;;;;;;39.20;29.60;;;;;;;;;;772373;179;627012;-57
2022/08/13 04:58:35;;;;;;;44.23;31.67;;;;;;;;;;764134;182;618188;-58
2022/08/13 05:00:59;;;;;;;36.63;28.60;;;;;;;;;;767190;181;627253;-59
2022/08/13 05:03:25;;;;;;;42.63;31.00;;;;;;;;;;758805;183;619297;-58
2022/08/13 05:05:51;;;;;;;40.90;31.27;;;;;;;;;;756676;184;636427;-58
2022/08/13 05:08:17;;;;;;;44.53;30.80;;;;;;;;;;754543;185;633034;-59
2022/08/13 05:10:42;;;;;;;47.50;29.23;;;;;;;;;;755487;185;637088;-57
2022/08/13 05:13:24;;;;;;;42.40;29.00;;;;;;;;;;760971;184;618870;-57
2022/08/13 05:15:50;;;;;;;42.83;28.40;;;;;;;;;;765164;183;607382;-57
2022/08/13 05:18:15;;;;;;;43.07;30.37;;;;;;;;;;758315;183;626180;-59
2022/08/13 05:20:42;;;;;;;40.40;29.30;;;;;;;;;;755624;183;628425;-57
2022/08/13 05:23:08;;;;;;;45.15;32.35;;;;;;;;;;754290;184;620987;-60
2022/08/13 05:25:34;;;;;;;37.10;28.73;;;;;;;;;;760182;183;616779;-58
2022/08/13 05:28:00;;;;;;;39.97;29.60;;;;;;;;;;766621;180;623352;-57
2022/08/13 05:30:26;;;;;;;44.43;30.30;;;;;;;;;;757445;183;640237;-58
2022/08/13 05:32:52;;;;;;;45.77;33.50;;;;;;;;;;759401;183;617510;-59
2022/08/13 05:35:17;;;;;;;41.70;30.50;;;;;;;;;;756723;183;631731;-57
2022/08/13 05:37:43;;;;;;;50.93;32.40;;;;;;;;;;756764;183;618512;-58
2022/08/13 05:40:10;;;;;;;42.50;30.17;;;;;;;;;;759261;183;612556;-59
2022/08/13 05:42:39;;;;;;;52.37;31.67;;;;;;;;;;754728;185;626126;-57
2022/08/13 05:45:01;;;;;;;53.67;34.37;;;;;;;;;;755421;183;630658;-58
2022/08/13 05:47:28;;;;;;;62.13;36.92;;;;;;;;;;757264;183;629266;-58
2022/08/13 05:49:53;;;;;;;71.73;38.00;;;;;;;;;;775030;179;622881;-59
2022/08/13 05:52:19;;;;;;;85.07;42.00;;;;;;;;;;757698;183;631874;-59
2022/08/13 05:54:45;;;;;;;75.07;39.53;;;;;;;;;;755513;183;615532;-58
2022/08/13 05:57:11;;;;;;;75.80;38.10;;;;;;;;;;758080;184;626842;-59
2022/08/13 06:04:40;;;;;;;85.50;41.60;;;;;;;;;;755733;183;634657;-58
2022/08/13 06:07:06;;;;;;;79.03;39.30;;;;;;;;;;759043;184;617183;-59
2022/08/13 06:09:32;;;;;;;75.10;39.60;;;;;;;;;;755762;183;632837;-57
2022/08/13 06:11:59;;;;;;;74.30;39.67;;;;;;;;;;754748;183;637211;-59
2022/08/13 06:14:25;;;;;;;86.80;42.83;;;;;;;;;;759407;183;625937;-59
2022/08/13 06:16:50;;;;;;;84.20;42.53;;;;;;;;;;755082;183;624722;-57
2022/08/13 06:19:15;;;;;;;78.67;39.07;;;;;;;;;;755428;183;631787;-58
2022/08/13 06:21:42;;;;;;;89.47;41.10;;;;;;;;;;757965;183;646271;-59
2022/08/13 06:24:07;;;;;;;76.63;39.90;;;;;;;;;;757235;185;624633;-59
2022/08/13 06:26:33;;;;;;;90.27;43.90;;;;;;;;;;756723;185;632146;-59
2022/08/13 06:29:01;;;;;;;73.53;37.03;;;;;;;;;;754938;183;622163;-58
2022/08/13 06:31:30;;;;;;;92.50;42.20;;;;;;;;;;757489;185;624655;-58
2022/08/13 06:33:52;;;;;;;86.13;41.63;;;;;;;;;;752938;184;642162;-58
2022/08/13 06:36:18;;;;;;;69.87;39.33;;;;;;;;;;756736;184;619985;-59
2022/08/13 06:38:43;;;;;;;81.17;41.57;;;;;;;;;;761132;183;613861;-59
2022/08/13 06:41:10;;;;;;;78.43;40.40;;;;;;;;;;755496;183;618658;-59
2022/08/13 06:43:35;;;;;;;84.83;41.00;;;;;;;;;;755176;185;618575;-60
2022/08/13 06:46:03;;;;;;;80.80;39.73;;;;;;;;;;759611;183;615013;-60
2022/08/13 06:48:27;;;;;;;72.33;40.60;;;;;;;;;;757608;183;626442;-59
2022/08/13 06:50:53;;;;;;;67.50;39.83;;;;;;;;;;757617;183;621231;-59
2022/08/13 06:53:19;;;;;;;73.93;40.37;;;;;;;;;;755219;184;629686;-58
2022/08/13 06:55:44;;;;;;;71.90;37.33;;;;;;;;;;758304;183;629100;-58
2022/08/13 06:58:10;;;;;;;77.87;38.60;;;;;;;;;;753767;183;622907;-58
2022/08/13 07:00:38;;;;;;;68.03;35.00;;;;;;;;;;755239;183;622405;-58
2022/08/13 07:03:02;;;;;;;70.13;37.83;;;;;;;;;;758385;183;631919;-58
2022/08/13 07:05:32;;;;;;;57.97;34.20;;;;;;;;;;756900;183;636969;-59
2022/08/13 07:07:58;;;;;;;64.23;34.20;;;;;;;;;;755674;183;619996;-58
2022/08/13 07:10:23;;;;;;;62.10;34.93;;;;;;;;;;756510;183;617829;-59
2022/08/13 07:12:49;;;;;;;60.87;32.40;;;;;;;;;;758681;183;627346;-58
2022/08/13 07:15:15;;;;;;;80.50;38.10;;;;;;;;;;757305;183;620138;-58
2022/08/13 07:17:41;;;;;;;71.73;38.73;;;;;;;;;;756835;183;618143;-60
2022/08/13 07:20:08;;;;;;;67.20;37.40;;;;;;;;;;756113;185;629529;-58
2022/08/13 07:22:34;;;;;;;77.47;38.23;;;;;;;;;;754738;184;630581;-61
2022/08/13 07:24:59;;;;;;;82.53;40.73;;;;;;;;;;752520;183;636708;-59
2022/08/13 07:27:25;;;;;;;70.27;36.67;;;;;;;;;;756547;186;625211;-58
2022/08/13 07:29:51;;;;;;;78.00;39.77;;;;;;;;;;755499;186;628947;-58
2022/08/13 07:32:17;;;;;;;77.87;38.20;;;;;;;;;;756562;184;622374;-60
2022/08/13 07:34:43;;;;;;;73.47;37.17;;;;;;;;;;760609;183;628255;-60
2022/08/13 07:37:09;;;;;;;60.97;34.83;;;;;;;;;;760739;183;616272;-58
2022/08/13 07:39:35;;;;;;;83.47;40.90;;;;;;;;;;762664;177;634457;-58
2022/08/13 07:42:01;;;;;;;83.30;40.27;;;;;;;;;;755783;183;638933;-60
2022/08/13 07:44:28;;;;;;;93.77;44.77;;;;;;;;;;759076;184;624767;-58
2022/08/13 07:46:54;;;;;;;101.13;47.00;;;;;;;;;;753374;184;624926;-58
2022/08/13 07:49:20;;;;;;;93.00;45.70;;;;;;;;;;755567;183;622889;-60
2022/08/13 07:51:46;;;;;;;88.20;45.17;;;;;;;;;;760206;183;629803;-58
2022/08/13 07:54:12;;;;;;;90.33;42.33;;;;;;;;;;755201;183;628501;-58
2022/08/13 07:56:37;;;;;;;87.70;41.57;;;;;;;;;;764364;183;643174;-59
2022/08/13 07:59:08;;;;;;;84.97;43.77;;;;;;;;;;767353;180;621332;-59
2022/08/13 08:01:36;;;;;;;82.63;42.47;;;;;;;;;;746040;188;617083;-58
2022/08/13 08:04:00;;;;;;;73.30;40.67;;;;;;;;;;743913;187;619246;-59
2022/08/13 08:06:26;;;;;;;75.40;38.43;;;;;;;;;;747799;187;632788;-60
2022/08/13 08:08:53;;;;;;;65.40;39.40;;;;;;;;;;751174;187;617292;-59
2022/08/13 08:13:52;;;;;;;57.70;35.67;;;;;;;;;;757384;183;631161;-59
2022/08/13 08:16:18;;;;;;;63.40;35.50;;;;;;;;;;755666;184;617680;-59
2022/08/13 08:18:44;;;;;;;53.87;35.40;;;;;;;;;;757056;184;616961;-58
2022/08/13 08:21:09;;;;;;;49.60;33.23;;;;;;;;;;752680;183;618595;-58
2022/08/13 08:23:35;;;;;;;53.70;35.67;;;;;;;;;;754645;183;635399;-57
2022/08/13 08:26:01;;;;;;;47.03;29.80;;;;;;;;;;759025;183;621026;-60
2022/08/13 08:28:27;;;;;;;55.60;33.20;;;;;;;;;;760316;183;616898;-59
2022/08/13 08:30:53;;;;;;;44.27;32.50;;;;;;;;;;761978;177;633609;-59
2022/08/13 08:33:18;;;;;;;46.93;31.83;;;;;;;;;;755870;183;634958;-59
2022/08/13 08:35:44;;;;;;;54.17;30.73;;;;;;;;;;744117;187;624833;-58
2022/08/13 08:43:13;;;;;;;51.47;33.60;;;;;;;;;;743988;187;635844;-60
2022/08/13 08:45:40;;;;;;;52.70;34.47;;;;;;;;;;756071;183;628559;-58
2022/08/13 08:48:05;;;;;;;54.00;32.40;;;;;;;;;;758146;183;625842;-59
2022/08/13 08:50:31;;;;;;;46.43;30.43;;;;;;;;;;754688;183;635124;-59
2022/08/13 08:55:35;;;;;;;51.70;31.77;;;;;;;;;;752495;183;638021;-58
2022/08/13 08:57:54;;;;;;;45.40;32.07;;;;;;;;;;753394;183;640963;-60
2022/08/13 09:00:20;;;;;;;46.43;34.17;;;;;;;;;;758042;183;634183;-59
2022/08/13 09:02:49;;;;;;;44.00;32.20;;;;;;;;;;744265;187;621861;-60
2022/08/13 09:05:14;;;;;;;49.33;31.60;;;;;;;;;;759125;183;616585;-58
2022/08/13 09:07:41;;;;;;;48.60;29.17;;;;;;;;;;755368;184;633181;-58
2022/08/13 09:10:09;;;;;;;47.30;33.73;;;;;;;;;;758924;184;632697;-58
2022/08/13 09:12:32;;;;;;;53.70;37.03;;;;;;;;;;753060;183;637103;-59
2022/08/13 09:14:58;;;;;;;51.70;34.33;;;;;;;;;;755282;183;624848;-60
2022/08/13 09:17:24;;;;;;;50.77;33.70;;;;;;;;;;758237;183;646706;-59
2022/08/13 09:19:50;;;;;;;51.70;33.63;;;;;;;;;;752338;184;627053;-59
2022/08/13 09:22:19;;;;;;;47.83;33.53;;;;;;;;;;752516;185;626033;-58
2022/08/13 09:24:46;;;;;;;45.80;31.07;;;;;;;;;;754470;184;623152;-59
2022/08/13 09:27:12;;;;;;;49.93;33.10;;;;;;;;;;759712;185;615802;-59
2022/08/13 09:29:37;;;;;;;50.13;35.47;;;;;;;;;;756640;183;625717;-59
2022/08/13 09:32:05;;;;;;;44.17;32.00;;;;;;;;;;756714;183;621058;-59
2022/08/13 09:34:29;;;;;;;46.03;31.80;;;;;;;;;;759993;183;626488;-58
2022/08/13 09:36:56;;;;;;;62.23;32.90;;;;;;;;;;755619;183;622323;-59
2022/08/13 09:39:33;;;;;;;44.10;30.03;;;;;;;;;;756074;183;627395;-58
2022/08/13 09:42:00;;;;;;;47.43;31.33;;;;;;;;;;754876;183;617828;-59
2022/08/13 09:44:26;;;;;;;46.63;32.60;;;;;;;;;;758693;183;619246;-59
2022/08/13 09:46:51;;;;;;;42.47;30.40;;;;;;;;;;753807;184;627078;-58
2022/08/13 09:49:16;;;;;;;44.20;33.50;;;;;;;;;;753220;184;613766;-59
2022/08/13 09:51:43;;;;;;;41.28;31.50;;;;;;;;;;758965;183;630268;-60
2022/08/13 09:54:09;;;;;;;49.00;34.93;;;;;;;;;;744740;188;633154;-60
2022/08/13 09:56:38;;;;;;;41.70;29.90;;;;;;;;;;758295;181;629163;-59
2022/08/13 09:59:03;;;;;;;41.00;29.97;;;;;;;;;;751116;185;623459;-60
2022/08/13 10:01:29;;;;;;;46.50;33.00;;;;;;;;;;759426;184;624841;-58
2022/08/13 10:03:55;;;;;;;41.70;29.73;;;;;;;;;;756099;186;641949;-58
2022/08/13 10:06:20;;;;;;;45.83;31.30;;;;;;;;;;756556;183;632953;-59
2022/08/13 10:08:46;;;;;;;45.83;32.20;;;;;;;;;;763751;183;627576;-58
2022/08/13 10:11:12;;;;;;;46.30;31.87;;;;;;;;;;758415;183;615025;-60
2022/08/13 10:13:38;;;;;;;49.67;35.47;;;;;;;;;;758149;185;645576;-59
2022/08/13 10:16:04;;;;;;;49.93;33.07;;;;;;;;;;757019;185;625870;-59
2022/08/13 10:18:31;;;;;;;54.33;35.97;;;;;;;;;;770816;179;633993;-58
2022/08/13 10:20:56;;;;;;;50.70;37.23;;;;;;;;;;762860;179;628339;-60
2022/08/13 10:23:21;;;;;;;57.40;39.40;;;;;;;;;;771784;179;618913;-59
2022/08/13 10:25:49;;;;;;;58.83;39.37;;;;;;;;;;758693;183;617247;-58
2022/08/13 10:28:13;;;;;;;58.50;41.80;;;;;;;;;;755136;183;642318;-59
2022/08/13 10:30:42;;;;;;;60.70;39.10;;;;;;;;;;755498;183;616828;-58
2022/08/13 10:33:05;;;;;;;62.07;42.43;;;;;;;;;;759022;184;628920;-58
2022/08/13 10:35:31;;;;;;;55.47;38.53;;;;;;;;;;755571;183;623684;-59
2022/08/13 10:37:57;;;;;;;53.10;35.67;;;;;;;;;;757183;183;624510;-59
2022/08/13 10:40:24;;;;;;;48.85;35.45;;;;;;;;;;758030;183;631226;-60
2022/08/13 10:42:51;;;;;;;51.60;33.50;;;;;;;;;;741551;188;629167;-59
2022/08/13 10:45:16;;;;;;;53.73;33.87;;;;;;;;;;747220;187;633907;-59
2022/08/13 10:47:43;;;;;;;54.60;37.37;;;;;;;;;;739574;186;624791;-58
2022/08/13 10:50:09;;;;;;;48.07;33.53;;;;;;;;;;747082;187;620941;-59
2022/08/13 10:52:35;;;;;;;51.63;33.60;;;;;;;;;;746631;187;628699;-59
2022/08/13 10:55:01;;;;;;;49.97;34.90;;;;;;;;;;739759;187;628863;-57
2022/08/13 10:57:26;;;;;;;43.70;30.80;;;;;;;;;;749745;187;617199;-59
2022/08/13 10:59:52;;;;;;;49.47;33.50;;;;;;;;;;738502;187;617169;-59
2022/08/13 11:02:18;;;;;;;42.90;32.47;;;;;;;;;;744753;187;619559;-60
2022/08/13 11:04:45;;;;;;;41.40;30.60;;;;;;;;;;745526;187;641323;-59
2022/08/13 11:07:11;;;;;;;39.90;29.80;;;;;;;;;;751869;185;625959;-58
2022/08/13 11:09:37;;;;;;;47.73;28.47;;;;;;;;;;751193;185;616003;-61
2022/08/13 11:12:01;;;;;;;45.17;30.70;;;;;;;;;;756398;184;629016;-60
2022/08/13 11:14:27;;;;;;;45.20;28.90;;;;;;;;;;761140;183;608358;-58
2022/08/13 11:16:57;;;;;;;42.23;29.73;;;;;;;;;;756281;185;623776;-59
2022/08/13 11:19:26;;;;;;;38.43;28.00;;;;;;;;;;757375;183;621257;-60
2022/08/13 11:21:49;;;;;;;38.37;27.17;;;;;;;;;;759239;182;619057;-58
2022/08/13 11:24:14;;;;;;;31.20;24.60;;;;;;;;;;757149;183;622939;-59
2022/08/13 11:26:40;;;;;;;35.67;24.77;;;;;;;;;;756963;183;620432;-60
2022/08/13 11:29:06;;;;;;;34.97;25.70;;;;;;;;;;755138;185;631071;-60
2022/08/13 11:31:32;;;;;;;37.20;26.47;;;;;;;;;;760943;183;638559;-58
2022/08/13 11:33:58;;;;;;;34.60;24.90;;;;;;;;;;756883;183;631263;-58
2022/08/13 11:36:24;;;;;;;33.37;25.53;;;;;;;;;;754712;185;619026;-58
2022/08/13 11:38:50;;;;;;;30.00;23.27;;;;;;;;;;761240;183;623505;-60
2022/08/13 11:41:16;;;;;;;30.00;22.77;;;;;;;;;;757083;185;617747;-60
2022/08/13 11:43:41;;;;;;;34.20;22.37;;;;;;;;;;755525;183;633618;-60
2022/08/13 11:46:07;;;;;;;28.90;21.67;;;;;;;;;;757800;183;620863;-60
2022/08/13 11:48:34;;;;;;;26.67;20.40;;;;;;;;;;755788;183;616479;-59
2022/08/13 11:50:59;;;;;;;28.37;21.87;;;;;;;;;;756332;183;619365;-58
2022/08/13 11:53:26;;;;;;;29.97;22.40;;;;;;;;;;755491;183;624458;-59
2022/08/13 11:55:51;;;;;;;33.60;23.43;;;;;;;;;;750345;183;629636;-60
2022/08/13 11:58:17;;;;;;;29.90;20.97;;;;;;;;;;740035;187;633771;-60
2022/08/13 12:00:42;;;;;;;27.67;21.50;;;;;;;;;;738032;188;627317;-58
2022/08/13 12:03:08;;;;;;;28.00;21.37;;;;;;;;;;748618;187;630385;-58
2022/08/13 12:05:34;;;;;;;27.73;20.33;;;;;;;;;;743686;187;640311;-59
2022/08/13 12:08:00;;;;;;;28.33;20.83;;;;;;;;;;748775;187;625361;-60
2022/08/13 12:10:26;;;;;;;30.10;22.63;;;;;;;;;;745484;187;617251;-60
2022/08/13 12:12:52;;;;;;;33.27;21.30;;;;;;;;;;746612;187;630018;-60
2022/08/13 12:15:17;;;;;;;30.33;21.30;;;;;;;;;;744645;187;627032;-59
2022/08/13 12:17:43;;;;;;;28.00;20.93;;;;;;;;;;741509;187;618433;-60
2022/08/13 12:20:10;;;;;;;29.27;21.53;;;;;;;;;;753979;184;626490;-59
2022/08/13 12:22:36;;;;;;;29.07;20.70;;;;;;;;;;755948;183;626684;-59
2022/08/13 12:25:01;;;;;;;30.37;21.63;;;;;;;;;;753140;184;634420;-58
2022/08/13 12:27:27;;;;;;;31.93;23.40;;;;;;;;;;758962;184;617135;-58
2022/08/13 12:29:53;;;;;;;33.57;22.67;;;;;;;;;;753692;183;627113;-58
2022/08/13 12:32:19;;;;;;;28.97;22.30;;;;;;;;;;753659;184;632934;-61
2022/08/13 12:34:45;;;;;;;34.40;24.60;;;;;;;;;;759878;183;615713;-58
2022/08/13 12:37:11;;;;;;;31.70;22.83;;;;;;;;;;755594;183;637721;-58
2022/08/13 12:39:36;;;;;;;32.00;22.60;;;;;;;;;;755382;182;624942;-60
2022/08/13 12:42:02;;;;;;;34.10;22.77;;;;;;;;;;762104;183;616403;-59
2022/08/13 12:44:28;;;;;;;33.73;22.80;;;;;;;;;;743662;187;637959;-59
2022/08/13 12:46:54;;;;;;;38.90;22.93;;;;;;;;;;742504;187;617553;-58
2022/08/13 12:49:20;;;;;;;34.73;22.33;;;;;;;;;;745570;187;630672;-57
2022/08/13 12:51:46;;;;;;;30.40;23.13;;;;;;;;;;747136;186;630439;-58
2022/08/13 12:54:12;;;;;;;39.00;23.13;;;;;;;;;;741936;187;634846;-58
2022/08/13 12:56:37;;;;;;;29.80;21.70;;;;;;;;;;746071;187;630802;-60
2022/08/13 12:59:04;;;;;;;29.30;20.80;;;;;;;;;;749704;187;626139;-59
2022/08/13 13:01:32;;;;;;;40.50;24.40;;;;;;;;;;744350;187;617823;-60
2022/08/13 13:03:56;;;;;;;31.83;22.67;;;;;;;;;;743980;187;618256;-58
2022/08/13 13:06:22;;;;;;;33.00;21.93;;;;;;;;;;742468;187;629294;-60
2022/08/13 13:08:48;;;;;;;32.37;24.00;;;;;;;;;;743527;187;625101;-58
2022/08/13 13:11:14;;;;;;;36.07;24.30;;;;;;;;;;742007;187;614313;-58
2022/08/13 13:13:40;;;;;;;28.77;22.67;;;;;;;;;;743605;187;618428;-60
2022/08/13 13:16:07;;;;;;;30.17;20.33;;;;;;;;;;746024;187;624698;-57
2022/08/13 13:18:33;;;;;;;29.83;22.30;;;;;;;;;;757803;183;628908;-59
2022/08/13 13:20:58;;;;;;;31.40;21.77;;;;;;;;;;758596;183;625770;-58
2022/08/13 13:23:24;;;;;;;29.73;21.10;;;;;;;;;;745732;187;626868;-59
2022/08/13 13:25:50;;;;;;;27.73;20.87;;;;;;;;;;750373;184;629615;-59
2022/08/13 13:28:16;;;;;;;27.70;19.20;;;;;;;;;;753593;184;630052;-59
2022/08/13 13:30:42;;;;;;;29.30;20.03;;;;;;;;;;758926;183;617864;-60
2022/08/13 13:33:09;;;;;;;26.97;18.13;;;;;;;;;;754965;185;636046;-59
2022/08/13 13:35:34;;;;;;;28.13;20.30;;;;;;;;;;755124;185;636197;-60
2022/08/13 13:38:00;;;;;;;25.17;18.63;;;;;;;;;;757323;183;627068;-58
2022/08/13 13:40:26;;;;;;;21.57;16.97;;;;;;;;;;759727;184;634987;-59
2022/08/13 13:42:52;;;;;;;27.93;17.00;;;;;;;;;;758370;183;632953;-59
2022/08/13 13:45:17;;;;;;;22.23;16.27;;;;;;;;;;758298;183;629587;-60
2022/08/13 13:47:43;;;;;;;26.30;19.90;;;;;;;;;;761837;185;632794;-58
2022/08/13 13:50:09;;;;;;;20.87;16.77;;;;;;;;;;756250;183;630115;-60
2022/08/13 13:52:35;;;;;;;21.40;15.37;;;;;;;;;;756773;183;621176;-59
2022/08/13 13:55:01;;;;;;;22.33;16.00;;;;;;;;;;759417;183;631886;-58
2022/08/13 13:57:27;;;;;;;28.07;19.20;;;;;;;;;;755263;183;625682;-60
2022/08/13 13:59:53;;;;;;;22.07;17.37;;;;;;;;;;756039;183;620334;-58
2022/08/13 14:02:19;;;;;;;24.50;18.00;;;;;;;;;;756860;183;629792;-58
2022/08/13 14:04:45;;;;;;;23.47;17.27;;;;;;;;;;759949;183;618575;-59
2022/08/13 14:07:10;;;;;;;26.97;19.10;;;;;;;;;;759094;183;751023;-60
2022/08/13 14:09:36;;;;;;;24.00;17.67;;;;;;;;;;755842;185;628039;-59
2022/08/13 14:12:02;;;;;;;32.30;18.20;;;;;;;;;;763810;183;616447;-59
2022/08/13 14:14:28;;;;;;;23.50;17.97;;;;;;;;;;754548;183;625158;-58
2022/08/13 14:16:54;;;;;;;27.60;18.80;;;;;;;;;;755332;183;627234;-60
2022/08/13 14:19:21;;;;;;;25.90;20.00;;;;;;;;;;763312;183;613248;-59